This is the latest recevied weather packets stored in our database for station/object PY2FLB-13. If no packets are shown the sender has not sent any weather packets the latest 10 day(s).
| Time | Temp. | Humidity | Pressure | Rain* | Wind** | Luminosity | Snow |
|---|---|---|---|---|---|---|---|
| 1777996069 | 28.33° C | 45% | 1017.2 hPa | - | - | - | - |
| 1777995769 | 28.89° C | 43% | 1017.2 hPa | - | - | - | - |
| 1777995469 | 29.44° C | 43% | 1017 hPa | - | - | - | - |
| 1777995169 | 28.89° C | 44% | 1017.3 hPa | - | - | - | - |
| 1777994869 | 29.44° C | 42% | 1017.2 hPa | - | - | - | - |
| 1777994568 | 28.89° C | 43% | 1017.3 hPa | - | - | - | - |
| 1777994268 | 28.33° C | 45% | 1017.5 hPa | - | - | - | - |
| 1777993968 | 28.33° C | 45% | 1017.6 hPa | - | - | - | - |
| 1777993668 | 28.33° C | 45% | 1017.6 hPa | - | - | - | - |
| 1777993369 | 27.78° C | 46% | 1017.8 hPa | - | - | - | - |
| 1777993068 | 27.78° C | 47% | 1017.9 hPa | - | - | - | - |
| 1777992768 | 28.33° C | 46% | 1017.9 hPa | - | - | - | - |
| 1777992468 | 28.33° C | 46% | 1018 hPa | - | - | - | - |
| 1777992169 | 27.78° C | 47% | 1018.1 hPa | - | - | - | - |
| 1777991869 | 27.78° C | 47% | 1018.2 hPa | - | - | - | - |
| 1777991569 | 27.78° C | 49% | 1018.4 hPa | - | - | - | - |
| 1777991268 | 27.78° C | 50% | 1018.5 hPa | - | - | - | - |
| 1777990968 | 27.78° C | 50% | 1018.6 hPa | - | - | - | - |
| 1777990668 | 27.78° C | 50% | 1018.7 hPa | - | - | - | - |
| 1777990369 | 27.22° C | 50% | 1018.8 hPa | - | - | - | - |
| 1777990069 | 27.22° C | 51% | 1018.9 hPa | - | - | - | - |
| 1777989769 | 27.22° C | 52% | 1019 hPa | - | - | - | - |
| 1777989469 | 27.22° C | 52% | 1019 hPa | - | - | - | - |
| 1777989169 | 26.67° C | 54% | 1019.1 hPa | - | - | - | - |
| 1777988869 | 26.67° C | 53% | 1019.2 hPa | - | - | - | - |
* Rain since midnight (hover to see other rain measurements)
** Current wind speed in m/s (hover to see current wind gust speed)